createdAt,value
2023-08-12T00:02:19.251Z,18.13
2023-08-12T00:04:49.185Z,18.08
2023-08-12T00:07:17.545Z,18.13
2023-08-12T00:09:45.534Z,18.09
2023-08-12T00:12:16.030Z,18.18
2023-08-12T00:14:43.991Z,18.15
2023-08-12T00:17:12.414Z,18.08
2023-08-12T00:19:40.594Z,18.10
2023-08-12T00:22:09.916Z,18.05
2023-08-12T00:24:37.883Z,17.86
2023-08-12T00:27:05.867Z,18.12
2023-08-12T00:29:34.121Z,17.96
2023-08-12T00:32:02.160Z,17.97
2023-08-12T00:34:30.392Z,18.02
2023-08-12T00:36:58.399Z,17.93
2023-08-12T00:39:27.809Z,17.75
2023-08-12T00:41:55.868Z,17.78
2023-08-12T00:44:24.240Z,17.77
2023-08-12T00:46:52.774Z,17.72
2023-08-12T00:49:20.832Z,17.76
2023-08-12T00:51:51.670Z,17.72
2023-08-12T00:54:21.270Z,17.61
2023-08-12T00:56:53.120Z,17.69
2023-08-12T00:59:22.899Z,17.99
2023-08-12T01:01:51.571Z,17.99
2023-08-12T01:04:19.585Z,17.73
2023-08-12T01:06:47.530Z,17.72
2023-08-12T01:09:15.934Z,17.84
2023-08-12T01:11:52.261Z,17.91
2023-08-12T01:14:27.561Z,17.95
2023-08-12T01:17:00.873Z,17.89
2023-08-12T01:19:34.810Z,17.64
2023-08-12T01:22:04.384Z,17.79
2023-08-12T01:24:38.257Z,17.76
2023-08-12T01:27:07.256Z,17.85
2023-08-12T01:29:36.756Z,17.91
2023-08-12T01:32:13.908Z,17.67
2023-08-12T01:34:50.078Z,17.76
2023-08-12T01:37:25.613Z,17.66
2023-08-12T01:39:57.595Z,17.59
2023-08-12T01:42:27.117Z,17.63
2023-08-12T01:44:56.516Z,17.64
2023-08-12T01:47:27.983Z,17.61
2023-08-12T01:49:56.331Z,17.68
2023-08-12T01:52:25.777Z,17.67
2023-08-12T01:54:55.221Z,17.58
2023-08-12T01:57:24.644Z,17.41
2023-08-12T01:59:53.389Z,17.38
2023-08-12T02:02:21.619Z,17.30
2023-08-12T02:04:49.833Z,17.56
2023-08-12T02:07:17.937Z,17.52
2023-08-12T02:09:45.971Z,17.30
2023-08-12T02:12:15.438Z,17.26
2023-08-12T02:14:43.359Z,17.26
2023-08-12T02:17:11.723Z,17.44
2023-08-12T02:19:40.218Z,17.29
2023-08-12T02:22:08.280Z,17.28
2023-08-12T02:24:36.230Z,17.09
2023-08-12T02:27:04.603Z,17.17
2023-08-12T02:29:34.125Z,17.32
2023-08-12T02:32:02.234Z,17.27
2023-08-12T02:34:30.795Z,17.29
2023-08-12T02:36:59.037Z,17.35
2023-08-12T02:39:27.028Z,17.29
2023-08-12T02:41:54.968Z,17.19
2023-08-12T02:44:23.583Z,17.20
2023-08-12T02:46:52.963Z,17.27
2023-08-12T02:49:21.076Z,17.28
2023-08-12T02:51:49.439Z,17.14
2023-08-12T02:54:17.474Z,17.11
2023-08-12T02:56:45.904Z,17.17
2023-08-12T02:59:13.926Z,17.21
2023-08-12T03:01:43.210Z,17.30
2023-08-12T03:04:13.089Z,17.36
2023-08-12T03:06:41.863Z,17.46
2023-08-12T03:09:09.886Z,17.45
2023-08-12T03:11:39.218Z,17.34
2023-08-12T03:14:10.467Z,17.29
2023-08-12T03:16:38.725Z,17.11
2023-08-12T03:19:07.870Z,17.05
2023-08-12T03:21:37.277Z,17.01
2023-08-12T03:24:07.308Z,17.26
2023-08-12T03:26:35.748Z,17.23
2023-08-12T03:29:04.052Z,17.29
2023-08-12T03:31:32.257Z,17.11
2023-08-12T03:34:00.338Z,17.02
2023-08-12T03:36:30.378Z,16.91
2023-08-12T03:38:59.752Z,16.83
2023-08-12T03:41:31.752Z,16.87
2023-08-12T03:44:04.878Z,17.03
2023-08-12T03:46:33.795Z,17.21
2023-08-12T03:49:01.971Z,17.13
2023-08-12T03:51:30.507Z,17.22
2023-08-12T03:54:00.220Z,16.85
2023-08-12T03:56:29.088Z,16.75
2023-08-12T03:58:57.056Z,16.97
2023-08-12T04:01:25.299Z,17.14
2023-08-12T04:03:53.318Z,16.91
2023-08-12T04:06:21.334Z,16.77
2023-08-12T04:08:49.302Z,16.90
2023-08-12T04:11:18.697Z,16.85
2023-08-12T04:13:47.852Z,16.77
2023-08-12T04:16:15.793Z,16.91
2023-08-12T04:18:44.233Z,17.00
2023-08-12T04:21:12.152Z,16.72
2023-08-12T04:23:40.114Z,16.93
2023-08-12T04:26:08.692Z,16.89
2023-08-12T04:28:38.042Z,16.98
2023-08-12T04:31:08.602Z,17.02
2023-08-12T04:33:38.219Z,16.99
2023-08-12T04:36:06.920Z,16.98
2023-08-12T04:38:34.893Z,17.05
2023-08-12T04:41:05.154Z,17.26
2023-08-12T04:43:35.021Z,17.38
2023-08-12T04:46:05.322Z,17.38
2023-08-12T04:48:33.929Z,17.34
2023-08-12T04:51:04.208Z,17.31
2023-08-12T04:53:32.327Z,17.47
2023-08-12T04:56:00.348Z,17.40
2023-08-12T04:58:28.822Z,17.64
2023-08-12T05:00:56.817Z,17.71
2023-08-12T05:03:26.642Z,17.70
2023-08-12T05:05:55.248Z,17.86
2023-08-12T05:08:27.548Z,17.89
2023-08-12T05:10:55.798Z,17.90
2023-08-12T05:13:24.646Z,18.04
2023-08-12T05:15:53.216Z,17.99
2023-08-12T05:18:21.235Z,17.88
2023-08-12T05:20:51.358Z,18.08
2023-08-12T05:23:19.708Z,18.22
2023-08-12T05:25:47.993Z,18.38
2023-08-12T05:28:16.099Z,18.63
2023-08-12T05:30:44.194Z,18.71
2023-08-12T05:33:12.256Z,18.86
2023-08-12T05:35:40.360Z,18.99
2023-08-12T05:38:09.797Z,19.10
2023-08-12T05:40:37.867Z,19.13
2023-08-12T05:43:05.951Z,19.22
2023-08-12T05:45:33.981Z,19.30
2023-08-12T05:48:02.063Z,19.40
2023-08-12T05:50:30.048Z,19.56
2023-08-12T05:52:59.976Z,19.62
2023-08-12T05:55:29.484Z,19.67
2023-08-12T05:57:57.518Z,19.68
2023-08-12T06:00:30.102Z,19.76
2023-08-12T06:02:58.181Z,19.83
2023-08-12T06:05:26.193Z,19.95
2023-08-12T06:07:54.113Z,19.97
2023-08-12T06:10:22.077Z,20.01
2023-08-12T06:12:51.445Z,20.07
2023-08-12T06:15:19.391Z,20.14
2023-08-12T06:17:47.348Z,20.30
2023-08-12T06:20:15.343Z,20.28
2023-08-12T06:22:43.320Z,20.33
2023-08-12T06:25:11.300Z,20.36
2023-08-12T06:27:39.708Z,20.45
2023-08-12T06:30:11.277Z,20.53
2023-08-12T06:32:39.281Z,20.52
2023-08-12T06:35:07.929Z,20.59
2023-08-12T06:37:35.934Z,20.65
2023-08-12T06:40:04.641Z,20.78
2023-08-12T06:42:32.662Z,20.84
2023-08-12T06:45:01.995Z,20.87
2023-08-12T06:47:31.470Z,20.90
2023-08-12T06:49:59.414Z,20.93
2023-08-12T06:52:27.853Z,20.96
2023-08-12T06:54:55.910Z,21.07
2023-08-12T06:57:23.920Z,21.06
2023-08-12T06:59:51.856Z,21.10
2023-08-12T07:02:22.062Z,21.17
2023-08-12T07:04:51.628Z,21.08
2023-08-12T07:07:19.630Z,21.14
2023-08-12T07:09:47.735Z,21.20
2023-08-12T07:12:15.801Z,21.26
2023-08-12T07:14:43.776Z,21.25
2023-08-12T07:17:11.768Z,21.24
2023-08-12T07:19:39.695Z,21.28
2023-08-12T07:22:09.094Z,21.36
2023-08-12T07:24:37.184Z,21.33
2023-08-12T07:27:07.719Z,21.37
2023-08-12T07:29:36.052Z,21.59
2023-08-12T07:32:04.151Z,21.78
2023-08-12T07:34:32.141Z,21.95
2023-08-12T07:37:02.325Z,22.11
2023-08-12T07:39:31.826Z,22.15
2023-08-12T07:41:59.776Z,22.19
2023-08-12T07:44:27.914Z,22.24
2023-08-12T07:46:55.954Z,22.31
2023-08-12T07:49:23.939Z,22.34
2023-08-12T07:51:52.318Z,22.44
2023-08-12T07:54:20.285Z,22.51
2023-08-12T07:56:49.592Z,22.52
2023-08-12T07:59:19.501Z,22.72
2023-08-12T08:01:47.552Z,22.74
2023-08-12T08:04:15.538Z,22.81
2023-08-12T08:06:43.559Z,22.88
2023-08-12T08:09:11.577Z,23.02
2023-08-12T08:11:39.644Z,23.00
2023-08-12T08:14:08.961Z,23.08
2023-08-12T08:16:37.693Z,23.18
2023-08-12T08:19:06.122Z,23.18
2023-08-12T08:21:34.131Z,23.23
2023-08-12T08:24:02.061Z,23.33
2023-08-12T08:26:30.009Z,23.33
2023-08-12T08:28:57.950Z,23.19
2023-08-12T08:31:27.307Z,23.23
2023-08-12T08:33:55.299Z,23.10
2023-08-12T08:36:24.076Z,23.07
2023-08-12T08:38:52.026Z,23.04
2023-08-12T08:41:20.013Z,22.99
2023-08-12T08:43:50.572Z,22.87
2023-08-12T08:46:18.789Z,22.84
2023-08-12T08:48:50.329Z,22.77
2023-08-12T08:51:22.844Z,22.68
2023-08-12T08:53:52.394Z,22.57
2023-08-12T08:58:50.243Z,22.57
2023-08-12T09:01:23.303Z,22.64
2023-08-12T09:03:53.795Z,22.69
2023-08-12T09:06:23.930Z,22.67
2023-08-12T09:08:53.994Z,22.69
2023-08-12T09:11:22.319Z,22.72
2023-08-12T09:13:50.334Z,22.84
2023-08-12T09:16:18.509Z,22.90
2023-08-12T09:18:46.804Z,22.99
2023-08-12T09:21:17.700Z,23.05
2023-08-12T09:23:46.142Z,23.06
2023-08-12T09:26:18.644Z,23.22
2023-08-12T09:28:46.890Z,23.38
2023-08-12T09:31:25.713Z,23.61
2023-08-12T09:33:55.566Z,23.89
2023-08-12T09:36:24.923Z,24.18
2023-08-12T09:38:53.678Z,24.36
2023-08-12T09:41:21.800Z,24.41
2023-08-12T09:43:49.759Z,24.49
2023-08-12T09:46:17.750Z,24.49
2023-08-12T09:48:45.831Z,24.40
2023-08-12T09:51:13.815Z,24.31
2023-08-12T09:53:44.346Z,24.30
2023-08-12T09:56:14.329Z,24.27
2023-08-12T09:58:44.205Z,24.34
2023-08-12T10:01:14.373Z,24.66
2023-08-12T10:03:44.811Z,24.78
2023-08-12T10:06:15.842Z,24.79
2023-08-12T10:08:47.774Z,24.93
2023-08-12T10:11:16.260Z,25.00
2023-08-12T10:13:45.108Z,25.04
2023-08-12T10:16:13.512Z,25.15
2023-08-12T10:18:42.353Z,25.11
2023-08-12T10:21:12.719Z,25.08
2023-08-12T10:23:47.470Z,25.08
2023-08-12T10:26:19.122Z,25.09
2023-08-12T10:28:47.532Z,24.99
2023-08-12T10:31:15.718Z,24.91
2023-08-12T10:33:44.629Z,25.02
2023-08-12T10:36:13.991Z,25.07
2023-08-12T10:38:42.054Z,25.14
2023-08-12T10:41:22.142Z,25.14
2023-08-12T10:43:58.014Z,25.19
2023-08-12T10:46:32.782Z,25.07
2023-08-12T10:49:04.802Z,25.20
2023-08-12T10:51:43.761Z,25.24
2023-08-12T10:54:19.535Z,25.28
2023-08-12T10:57:12.874Z,25.31
2023-08-12T10:59:54.266Z,25.45
2023-08-12T11:02:24.289Z,25.62
2023-08-12T11:04:54.746Z,25.73
2023-08-12T11:07:24.574Z,25.78
2023-08-12T11:09:55.780Z,25.92
2023-08-12T11:12:32.378Z,26.01
2023-08-12T11:15:02.514Z,25.99
2023-08-12T11:17:34.301Z,25.98
2023-08-12T11:20:05.143Z,26.11
2023-08-12T11:22:34.406Z,26.08
2023-08-12T11:25:03.654Z,26.07
2023-08-12T11:27:38.534Z,26.16
2023-08-12T11:30:07.833Z,26.11
2023-08-12T11:32:36.078Z,26.13
2023-08-12T11:35:07.002Z,26.13
2023-08-12T11:37:57.380Z,26.01
2023-08-12T11:40:27.046Z,25.98
2023-08-12T11:42:57.155Z,25.99
2023-08-12T11:45:26.913Z,25.85
2023-08-12T11:47:56.312Z,25.76
2023-08-12T11:50:26.553Z,25.58
2023-08-12T11:52:55.790Z,25.69
2023-08-12T11:55:24.178Z,25.71
2023-08-12T11:57:53.517Z,25.63
2023-08-12T12:00:24.829Z,25.62
2023-08-12T12:02:54.744Z,25.56
2023-08-12T12:05:25.599Z,25.62
2023-08-12T12:07:54.700Z,25.51
2023-08-12T12:10:31.048Z,25.45
2023-08-12T12:13:03.070Z,25.51
2023-08-12T12:15:33.242Z,25.42
2023-08-12T12:18:01.429Z,25.35
2023-08-12T12:20:30.478Z,25.27
2023-08-12T12:22:58.713Z,25.13
2023-08-12T12:25:26.636Z,25.19
2023-08-12T12:27:55.193Z,25.05
2023-08-12T12:30:23.191Z,24.95
2023-08-12T12:32:53.116Z,24.96
2023-08-12T12:35:21.696Z,24.88
2023-08-12T12:37:49.615Z,24.94
2023-08-12T12:40:18.245Z,25.00
2023-08-12T12:42:46.203Z,24.79
2023-08-12T12:45:14.472Z,24.76
2023-08-12T12:47:42.511Z,24.58
2023-08-12T12:50:12.047Z,24.56
2023-08-12T12:52:40.942Z,24.67
2023-08-12T12:55:10.997Z,24.94
2023-08-12T12:57:39.042Z,25.28
2023-08-12T13:00:12.636Z,25.38
2023-08-12T13:02:40.705Z,25.63
2023-08-12T13:05:09.952Z,25.85
2023-08-12T13:07:39.343Z,26.04
2023-08-12T13:10:08.868Z,26.08
2023-08-12T13:12:36.736Z,26.03
2023-08-12T13:15:05.218Z,26.11
2023-08-12T13:17:33.266Z,26.13
2023-08-12T13:20:01.259Z,26.31
2023-08-12T13:22:29.430Z,26.77
2023-08-12T13:24:58.890Z,27.09
2023-08-12T13:27:27.404Z,27.38
2023-08-12T13:29:55.441Z,27.66
2023-08-12T13:32:23.522Z,27.79
2023-08-12T13:34:51.478Z,28.08
2023-08-12T13:37:19.443Z,28.23
2023-08-12T13:39:47.465Z,28.50
2023-08-12T13:42:16.781Z,28.53
2023-08-12T13:44:44.729Z,28.65
2023-08-12T13:47:12.728Z,28.41
2023-08-12T13:49:40.789Z,28.22
2023-08-12T13:52:08.805Z,28.29
2023-08-12T13:54:36.951Z,28.43
2023-08-12T13:57:05.623Z,28.79
2023-08-12T13:59:35.244Z,29.00
2023-08-12T14:02:04.251Z,29.26
2023-08-12T14:04:32.242Z,29.30
2023-08-12T14:07:00.414Z,29.19
2023-08-12T14:09:29.230Z,29.32
2023-08-12T14:11:57.524Z,29.71
2023-08-12T14:14:28.659Z,29.64
2023-08-12T14:16:58.249Z,29.45
2023-08-12T14:19:26.214Z,29.35
2023-08-12T14:21:54.197Z,29.47
2023-08-12T14:24:22.805Z,29.32
2023-08-12T14:26:50.758Z,29.31
2023-08-12T14:29:18.806Z,28.92
2023-08-12T14:31:46.818Z,29.12
2023-08-12T14:34:17.423Z,28.96
2023-08-12T14:36:45.451Z,28.87
2023-08-12T14:39:13.439Z,28.77
2023-08-12T14:41:41.395Z,28.62
2023-08-12T14:44:09.422Z,28.91
2023-08-12T14:46:37.480Z,28.82
2023-08-12T14:49:05.960Z,28.72
2023-08-12T14:51:35.332Z,28.75
2023-08-12T14:54:03.656Z,28.64
2023-08-12T14:56:31.619Z,28.88
2023-08-12T14:58:59.634Z,28.94
2023-08-12T15:01:29.058Z,28.69
2023-08-12T15:03:57.637Z,29.08
2023-08-12T15:06:25.660Z,29.52
2023-08-12T15:08:56.664Z,29.21
2023-08-12T15:11:24.905Z,29.05
2023-08-12T15:13:52.947Z,29.29
2023-08-12T15:16:21.068Z,29.07
2023-08-12T15:18:49.084Z,29.00
2023-08-12T15:21:17.884Z,29.02
2023-08-12T15:23:45.974Z,28.95
2023-08-12T15:26:18.636Z,28.60
2023-08-12T15:28:46.632Z,28.49
2023-08-12T15:31:16.931Z,28.31
2023-08-12T15:33:45.117Z,28.14
2023-08-12T15:36:13.160Z,28.11
2023-08-12T15:38:42.652Z,28.13
2023-08-12T15:41:16.750Z,28.10
2023-08-12T15:43:45.731Z,28.02
2023-08-12T15:46:14.162Z,28.07
2023-08-12T15:48:43.764Z,28.17
2023-08-12T15:51:12.115Z,28.05
2023-08-12T15:53:40.059Z,27.99
2023-08-12T15:56:08.083Z,27.94
2023-08-12T15:58:37.444Z,27.82
2023-08-12T16:01:05.463Z,27.86
2023-08-12T16:03:33.570Z,27.81
2023-08-12T16:06:01.825Z,27.87
2023-08-12T16:08:30.198Z,27.89
2023-08-12T16:10:58.357Z,27.87
2023-08-12T16:13:26.475Z,27.92
2023-08-12T16:15:56.265Z,27.96
2023-08-12T16:18:24.465Z,27.87
2023-08-12T16:20:53.721Z,27.79
2023-08-12T16:23:21.711Z,27.70
2023-08-12T16:25:49.711Z,27.58
2023-08-12T16:28:17.669Z,27.50
2023-08-12T16:30:45.704Z,27.38
2023-08-12T16:33:15.088Z,27.34
2023-08-12T16:35:43.172Z,27.31
2023-08-12T16:38:11.389Z,27.44
2023-08-12T16:40:39.457Z,27.38
2023-08-12T16:43:07.547Z,27.45
2023-08-12T16:45:35.685Z,27.33
2023-08-12T16:48:03.781Z,27.27
2023-08-12T16:50:33.376Z,27.20
2023-08-12T16:53:01.413Z,27.15
2023-08-12T16:55:29.434Z,27.12
2023-08-12T16:57:57.518Z,27.15
2023-08-12T17:00:25.463Z,27.06
2023-08-12T17:02:53.434Z,27.12
2023-08-12T17:05:21.461Z,27.08
2023-08-12T17:07:50.970Z,27.06
2023-08-12T17:10:19.153Z,26.97
2023-08-12T17:12:47.168Z,26.95
2023-08-12T17:15:15.263Z,26.97
2023-08-12T17:17:43.248Z,26.92
2023-08-12T17:20:11.557Z,26.96
2023-08-12T17:22:39.589Z,26.98
2023-08-12T17:25:10.089Z,26.93
2023-08-12T17:27:38.271Z,26.87
2023-08-12T17:30:07.745Z,26.74
2023-08-12T17:32:35.970Z,26.80
2023-08-12T17:35:04.500Z,26.67
2023-08-12T17:37:37.519Z,26.61
2023-08-12T17:40:06.272Z,26.67
2023-08-12T17:42:35.987Z,26.66
2023-08-12T17:45:04.221Z,26.71
2023-08-12T17:47:32.806Z,26.62
2023-08-12T17:50:00.870Z,26.67
2023-08-12T17:52:28.838Z,26.53
2023-08-12T17:54:56.972Z,26.50
2023-08-12T17:57:25.046Z,26.45
2023-08-12T17:59:54.951Z,26.44
2023-08-12T18:02:22.972Z,26.39
2023-08-12T18:04:50.969Z,26.36
2023-08-12T18:07:19.008Z,26.38
2023-08-12T18:09:47.184Z,26.30
2023-08-12T18:12:15.461Z,26.23
2023-08-12T18:14:43.712Z,26.11
2023-08-12T18:17:13.317Z,26.23
2023-08-12T18:19:41.410Z,26.16
2023-08-12T18:22:09.406Z,26.04
2023-08-12T18:24:37.385Z,25.98
2023-08-12T18:27:05.726Z,25.70
2023-08-12T18:29:34.046Z,24.88
2023-08-12T18:32:02.570Z,24.25
2023-08-12T18:34:31.960Z,23.66
2023-08-12T18:36:59.947Z,23.33
2023-08-12T18:39:27.952Z,23.20
2023-08-12T18:41:56.024Z,23.03
2023-08-12T18:44:24.292Z,22.92
2023-08-12T18:46:52.289Z,22.87
2023-08-12T18:49:20.294Z,22.87
2023-08-12T18:51:49.836Z,22.75
2023-08-12T18:54:22.828Z,22.76
2023-08-12T18:56:50.858Z,22.68
2023-08-12T18:59:22.335Z,22.62
2023-08-12T19:01:51.967Z,22.53
2023-08-12T19:04:20.161Z,22.17
2023-08-12T19:06:50.334Z,22.14
2023-08-12T19:09:18.560Z,21.99
2023-08-12T19:11:47.016Z,21.98
2023-08-12T19:14:15.826Z,21.92
2023-08-12T19:16:43.816Z,21.76
2023-08-12T19:19:12.515Z,21.75
2023-08-12T19:21:40.612Z,21.58
2023-08-12T19:24:10.792Z,21.52
2023-08-12T19:26:39.240Z,21.43
2023-08-12T19:29:07.390Z,21.38
2023-08-12T19:31:35.624Z,21.34
2023-08-12T19:34:03.915Z,21.33
2023-08-12T19:36:31.935Z,21.22
2023-08-12T19:39:00.093Z,21.19
2023-08-12T19:41:30.553Z,21.18
2023-08-12T19:44:00.117Z,21.26
2023-08-12T19:46:28.208Z,21.20
2023-08-12T19:48:56.562Z,21.29
2023-08-12T19:51:24.643Z,21.30
2023-08-12T19:53:52.735Z,21.37
2023-08-12T19:56:20.792Z,21.38
2023-08-12T19:58:50.162Z,21.42
2023-08-12T20:01:18.172Z,21.49
2023-08-12T20:03:46.261Z,21.55
2023-08-12T20:06:14.439Z,21.58
2023-08-12T20:08:42.419Z,21.55
2023-08-12T20:11:10.620Z,21.60
2023-08-12T20:13:39.767Z,21.66
2023-08-12T20:16:09.326Z,21.58
2023-08-12T20:18:37.468Z,21.56
2023-08-12T20:21:05.684Z,21.56
2023-08-12T20:23:33.656Z,21.48
2023-08-12T20:26:01.986Z,21.46
2023-08-12T20:28:30.010Z,21.41
2023-08-12T20:30:58.018Z,21.27
2023-08-12T20:33:27.541Z,21.24
2023-08-12T20:35:55.680Z,21.28
2023-08-12T20:38:23.965Z,21.23
2023-08-12T20:40:52.260Z,21.17
2023-08-12T20:43:20.169Z,21.05
2023-08-12T20:45:48.252Z,21.03
2023-08-12T20:48:16.969Z,21.42
2023-08-12T20:50:46.858Z,21.61
2023-08-12T20:53:14.821Z,21.54
2023-08-12T20:55:43.265Z,21.52
2023-08-12T20:58:11.200Z,21.57
2023-08-12T21:00:40.557Z,21.48
2023-08-12T21:03:08.653Z,21.46
2023-08-12T21:05:38.441Z,21.56
2023-08-12T21:08:08.065Z,21.46
2023-08-12T21:10:36.026Z,21.57
2023-08-12T21:13:04.102Z,21.56
2023-08-12T21:15:32.106Z,21.46
2023-08-12T21:18:01.759Z,21.34
2023-08-12T21:20:29.780Z,21.18
2023-08-12T21:22:57.700Z,21.02
2023-08-12T21:25:27.280Z,21.02
2023-08-12T21:27:55.281Z,20.91
2023-08-12T21:30:23.619Z,20.91
2023-08-12T21:32:51.642Z,20.92
2023-08-12T21:35:19.928Z,20.89
2023-08-12T21:37:48.010Z,20.85
2023-08-12T21:40:15.977Z,20.80
2023-08-12T21:42:45.694Z,21.04
2023-08-12T21:45:13.834Z,20.94
2023-08-12T21:47:42.208Z,20.91
2023-08-12T21:50:10.954Z,20.75
2023-08-12T21:52:39.149Z,20.71
2023-08-12T21:55:07.836Z,20.73
2023-08-12T21:57:36.270Z,20.70
2023-08-12T22:00:08.202Z,20.78
2023-08-12T22:02:36.214Z,20.87
2023-08-12T22:05:04.591Z,21.01
2023-08-12T22:07:32.759Z,21.00
2023-08-12T22:10:00.901Z,21.30
2023-08-12T22:12:29.069Z,21.37
2023-08-12T22:14:57.077Z,21.31
2023-08-12T22:17:26.443Z,21.49
2023-08-12T22:19:54.862Z,21.40
2023-08-12T22:22:23.150Z,21.64
2023-08-12T22:24:52.533Z,21.64
2023-08-12T22:27:20.511Z,21.69
2023-08-12T22:29:48.619Z,21.72
2023-08-12T22:32:17.005Z,21.83
2023-08-12T22:34:46.618Z,21.84
2023-08-12T22:37:14.805Z,21.91
2023-08-12T22:39:43.128Z,21.94
2023-08-12T22:42:11.447Z,21.93
2023-08-12T22:44:39.554Z,21.99
2023-08-12T22:47:07.586Z,21.99
2023-08-12T22:49:35.508Z,21.94
2023-08-12T22:52:05.202Z,22.02
2023-08-12T22:54:32.193Z,22.01
2023-08-12T22:57:00.231Z,21.99
2023-08-12T22:59:28.161Z,22.00
2023-08-12T23:01:56.418Z,22.00
2023-08-12T23:04:24.488Z,21.99
2023-08-12T23:06:52.481Z,21.96
2023-08-12T23:09:21.789Z,21.87
2023-08-12T23:11:49.793Z,21.94
2023-08-12T23:14:17.767Z,21.74
2023-08-12T23:16:45.770Z,21.80
2023-08-12T23:19:13.760Z,21.86
2023-08-12T23:21:41.792Z,21.87
2023-08-12T23:24:09.824Z,21.82
2023-08-12T23:26:39.996Z,21.76
2023-08-12T23:29:08.075Z,21.77
2023-08-12T23:31:36.362Z,21.72
2023-08-12T23:34:04.439Z,21.71
2023-08-12T23:36:32.640Z,21.70
2023-08-12T23:39:00.699Z,21.64
2023-08-12T23:41:28.663Z,21.59
2023-08-12T23:43:58.029Z,21.56
2023-08-12T23:46:26.162Z,21.55
2023-08-12T23:48:54.488Z,21.52
2023-08-12T23:51:22.669Z,21.51
2023-08-12T23:53:50.827Z,21.41
2023-08-12T23:56:19.082Z,21.40
2023-08-12T23:58:47.146Z,21.42
